Time;durP1;ratioP1;P1;durP2;ratioP2;P2;SDS_P1;SDS_P2;PMS_P1;PMS_P2;Temp;Humidity;BMP_temperature;BMP_pressure;BME280_temperature;BME280_humidity;BME280_pressure;Samples;Min_cycle;Max_cycle;Signal;HPM_P1;HPM_P2
2022/05/05 00:00:56;;;;;;;0.20;0.20;;;;;;;8.95;51.67;97319.13;4954736;29;20061;-62
2022/05/05 00:03:25;;;;;;;0.13;0.13;;;;;;;8.76;51.92;97311.31;4970802;28;20042;-62
2022/05/05 00:05:54;;;;;;;0.32;0.32;;;;;;;8.66;52.27;97308.47;4954746;29;20027;-61
2022/05/05 00:08:22;;;;;;;0.50;0.50;;;;;;;8.62;52.19;97310.06;4970645;28;20042;-66
2022/05/05 00:16:21;;;;;;;0.43;0.43;;;;;;;8.38;52.25;97309.53;4956357;29;20477;-62
2022/05/05 00:18:50;;;;;;;0.30;0.30;;;;;;;8.32;52.49;97325.06;4954121;29;20045;-63
2022/05/05 00:21:19;;;;;;;0.20;0.20;;;;;;;8.31;52.39;97319.84;4970329;28;20042;-63
2022/05/05 00:23:47;;;;;;;0.20;0.20;;;;;;;8.25;52.29;97328.00;4970355;28;20113;-64
2022/05/05 00:26:16;;;;;;;0.30;0.30;;;;;;;8.18;52.55;97351.97;4970307;28;20109;-62
2022/05/05 00:28:44;;;;;;;0.20;0.20;;;;;;;8.08;52.74;97343.63;4970318;28;20409;-62
2022/05/05 00:31:13;;;;;;;0.20;0.20;;;;;;;7.98;52.92;97343.50;4954197;29;20031;-62
2022/05/05 00:33:43;;;;;;;0.20;0.20;;;;;;;7.90;52.99;97347.53;4970426;28;20067;-64
2022/05/05 00:36:12;;;;;;;0.20;0.20;;;;;;;7.85;53.02;97361.13;4954446;29;20039;-63
2022/05/05 00:38:39;;;;;;;0.20;0.20;;;;;;;7.80;53.02;97361.06;4953938;28;20414;-62
2022/05/05 00:41:06;;;;;;;0.35;0.35;;;;;;;7.74;52.98;97370.25;4955466;28;20035;-63
2022/05/05 00:43:34;;;;;;;0.20;0.20;;;;;;;7.70;52.88;97361.75;4970245;28;20078;-63
2022/05/05 00:46:04;;;;;;;0.20;0.20;;;;;;;7.65;53.05;97361.66;4969853;28;20031;-62
2022/05/05 00:48:33;;;;;;;0.20;0.20;;;;;;;7.57;53.16;97367.56;4969446;28;20032;-61
2022/05/05 00:51:02;;;;;;;0.20;0.20;;;;;;;7.55;53.12;97384.19;4969756;28;20146;-62
2022/05/05 00:53:30;;;;;;;0.20;0.20;;;;;;;7.50;53.14;97386.88;4970073;28;20042;-63
2022/05/05 00:56:08;;;;;;;0.20;0.20;;;;;;;7.52;53.11;97395.63;4969834;28;20039;-63
2022/05/05 00:58:36;;;;;;;0.20;0.20;;;;;;;7.53;53.04;97397.28;4953247;28;20046;-63
2022/05/05 01:01:04;;;;;;;0.20;0.20;;;;;;;7.51;53.12;97396.72;4953884;29;20110;-63
2022/05/05 01:03:35;;;;;;;0.20;0.20;;;;;;;7.48;53.15;97402.66;4953604;28;20126;-62
2022/05/05 01:06:03;;;;;;;0.20;0.20;;;;;;;7.53;53.12;97406.28;4969804;28;20034;-63
2022/05/05 01:08:30;;;;;;;0.20;0.20;;;;;;;7.57;52.98;97413.97;4955303;28;20413;-65
2022/05/05 01:11:02;;;;;;;0.20;0.20;;;;;;;7.57;53.09;97414.84;4969416;28;20031;-63
2022/05/05 01:13:30;;;;;;;0.20;0.20;;;;;;;7.56;53.21;97418.63;4953311;29;20046;-63
2022/05/05 01:19:59;;;;;;;0.20;0.20;;;;;;;7.60;52.94;97418.97;4948408;29;20090;-62
2022/05/05 01:29:51;;;;;;;0.15;0.15;;;;;;;7.56;52.82;97406.88;4952111;29;20049;-61
2022/05/05 01:35:42;;;;;;;0.13;0.13;;;;;;;7.54;52.66;97413.41;4952581;29;20107;-62
2022/05/05 01:38:09;;;;;;;0.30;0.30;;;;;;;7.63;52.68;97415.75;4953706;28;20051;-63
2022/05/05 01:40:36;;;;;;;0.20;0.20;;;;;;;7.79;52.42;97420.34;4954074;28;20042;-63
2022/05/05 01:43:05;;;;;;;0.15;0.15;;;;;;;7.87;52.30;97419.91;4953926;28;20058;-63
2022/05/05 01:45:31;;;;;;;0.20;0.20;;;;;;;7.96;52.18;97430.41;4954193;28;20168;-63
2022/05/05 01:47:57;;;;;;;0.20;0.20;;;;;;;8.05;51.94;97437.94;4953681;28;20035;-64
2022/05/05 01:50:25;;;;;;;0.22;0.22;;;;;;;8.18;51.67;97436.72;4949040;28;20426;-63
2022/05/05 01:52:53;;;;;;;0.20;0.20;;;;;;;8.29;51.44;97424.03;4949541;28;20050;-62
2022/05/05 01:55:23;;;;;;;0.30;0.30;;;;;;;8.41;51.32;97427.47;4948817;28;20070;-61
2022/05/05 01:57:49;;;;;;;0.20;0.20;;;;;;;8.67;50.76;97440.63;4953119;28;20521;-64
2022/05/05 02:00:16;;;;;;;0.20;0.20;;;;;;;9.52;49.12;97438.16;4952735;28;20086;-67
2022/05/05 02:02:42;;;;;;;0.25;0.25;;;;;;;9.78;48.69;97430.97;4953118;28;20047;-67
2022/05/05 02:05:09;;;;;;;0.13;0.13;;;;;;;9.80;48.65;97434.28;4952996;28;20039;-64
2022/05/05 02:07:35;;;;;;;0.30;0.30;;;;;;;9.89;48.59;97433.78;4952259;28;20410;-65
2022/05/05 02:10:04;;;;;;;1.52;0.40;;;;;;;10.01;48.39;97439.88;4952820;28;20078;-64
2022/05/05 02:12:38;;;;;;;0.20;0.20;;;;;;;9.89;48.81;97436.53;4953252;28;20073;-61
2022/05/05 02:15:06;;;;;;;0.20;0.20;;;;;;;9.56;49.48;97435.75;4954149;28;20046;-63
2022/05/05 02:17:33;;;;;;;0.20;0.20;;;;;;;9.28;50.15;97449.47;4953946;28;20130;-63
2022/05/05 02:20:04;;;;;;;0.20;0.20;;;;;;;9.16;50.49;97439.75;4953936;29;21197;-62
2022/05/05 02:22:30;;;;;;;0.20;0.20;;;;;;;8.93;50.80;97448.03;4953857;28;20417;-63
2022/05/05 02:24:55;;;;;;;0.20;0.20;;;;;;;8.69;51.35;97452.97;4953461;28;20035;-61
2022/05/05 02:27:21;;;;;;;0.10;0.10;;;;;;;8.57;51.62;97449.56;4954084;28;20143;-63
2022/05/05 02:29:47;;;;;;;0.10;0.10;;;;;;;8.46;51.75;97467.75;4953784;28;20054;-62
2022/05/05 02:32:13;;;;;;;0.20;0.20;;;;;;;8.33;51.95;97473.56;4952205;29;20573;-64
2022/05/05 02:34:39;;;;;;;0.20;0.20;;;;;;;8.24;52.11;97470.44;4953677;28;20035;-62
2022/05/05 02:39:49;;;;;;;0.20;0.20;;;;;;;8.23;52.07;97477.00;4954147;29;20054;-63
2022/05/05 02:42:16;;;;;;;0.20;0.20;;;;;;;8.16;52.01;97479.91;4953622;28;20090;-62
2022/05/05 02:44:43;;;;;;;0.20;0.20;;;;;;;8.20;51.96;97488.41;4953429;28;20039;-62
2022/05/05 02:47:09;;;;;;;0.20;0.20;;;;;;;8.31;51.56;97489.41;4955798;28;20055;-61
2022/05/05 02:49:35;;;;;;;1.23;0.35;;;;;;;8.39;51.48;97487.06;4949963;28;21194;-60
2022/05/05 02:52:03;;;;;;;0.13;0.13;;;;;;;8.50;51.17;97488.06;4944387;28;20066;-61
2022/05/05 02:57:13;;;;;;;0.47;0.47;;;;;;;8.48;51.17;97492.09;4952784;29;20105;-62
2022/05/05 02:59:38;;;;;;;0.20;0.20;;;;;;;8.28;51.51;97500.84;4953377;28;20035;-60
2022/05/05 03:02:04;;;;;;;0.20;0.20;;;;;;;8.14;51.88;97509.41;4952718;28;20042;-61
2022/05/05 03:04:30;;;;;;;0.10;0.10;;;;;;;8.14;51.82;97516.78;4953487;28;20041;-62
2022/05/05 03:06:55;;;;;;;0.40;0.40;;;;;;;8.18;51.66;97507.81;4953777;28;20522;-62
2022/05/05 03:09:21;;;;;;;0.10;0.10;;;;;;;8.19;51.61;97516.88;4953177;28;20114;-60
2022/05/05 03:11:47;;;;;;;0.20;0.20;;;;;;;8.23;51.47;97520.75;4955017;28;20054;-63
2022/05/05 03:14:13;;;;;;;0.22;0.22;;;;;;;8.16;51.68;97514.63;4971641;28;20046;-61
2022/05/05 03:16:39;;;;;;;0.10;0.10;;;;;;;8.13;51.66;97515.16;4957251;28;20047;-59
2022/05/05 03:19:05;;;;;;;0.47;0.35;;;;;;;8.05;51.84;97516.38;4956529;28;20035;-62
2022/05/05 03:21:30;;;;;;;2.92;0.38;;;;;;;8.03;51.82;97522.09;4957152;28;20423;-61
2022/05/05 03:23:56;;;;;;;0.20;0.20;;;;;;;8.01;51.88;97518.78;4956427;28;20162;-62
2022/05/05 03:26:22;;;;;;;0.20;0.20;;;;;;;7.96;51.88;97515.16;4956234;28;20039;-61
2022/05/05 03:28:47;;;;;;;0.20;0.20;;;;;;;7.94;52.02;97514.59;4961072;28;20038;-61
2022/05/05 03:31:13;;;;;;;0.20;0.20;;;;;;;7.91;51.95;97517.81;4956944;28;20117;-65
2022/05/05 03:33:39;;;;;;;0.20;0.20;;;;;;;7.88;51.98;97530.06;4957461;28;20121;-64
2022/05/05 03:36:05;;;;;;;0.20;0.20;;;;;;;7.83;52.03;97525.34;4957059;28;20383;-62
2022/05/05 03:38:30;;;;;;;0.20;0.20;;;;;;;7.78;52.29;97529.91;4956551;28;20426;-63
2022/05/05 03:40:56;;;;;;;0.20;0.20;;;;;;;7.68;52.40;97525.09;4956579;28;20538;-63
2022/05/05 03:43:22;;;;;;;0.10;0.10;;;;;;;7.64;52.36;97527.50;4956816;29;20039;-62
2022/05/05 03:45:47;;;;;;;0.20;0.20;;;;;;;7.68;52.22;97528.63;4956581;28;20122;-63
2022/05/05 03:48:13;;;;;;;0.20;0.20;;;;;;;7.70;52.15;97534.69;4956090;28;20517;-62
2022/05/05 03:50:39;;;;;;;0.10;0.10;;;;;;;7.74;52.16;97528.75;4956518;28;20094;-64
2022/05/05 03:53:05;;;;;;;9.60;0.50;;;;;;;7.82;51.89;97520.13;4956583;28;20039;-63
2022/05/05 03:55:31;;;;;;;0.10;0.10;;;;;;;7.89;51.79;97527.09;4956534;28;20095;-63
2022/05/05 03:57:57;;;;;;;0.68;0.68;;;;;;;7.99;51.62;97529.13;4956134;28;20039;-63
2022/05/05 04:00:23;;;;;;;0.40;0.40;;;;;;;8.12;51.27;97532.63;4956362;28;20389;-63
2022/05/05 04:05:34;;;;;;;0.20;0.20;;;;;;;8.31;50.98;97519.50;4956658;29;20045;-62
2022/05/05 04:08:04;;;;;;;0.10;0.10;;;;;;;8.37;50.81;97511.09;4956101;28;20117;-61
2022/05/05 04:10:30;;;;;;;0.20;0.20;;;;;;;8.52;50.64;97515.16;4956407;28;20039;-63
2022/05/05 04:12:56;;;;;;;0.20;0.20;;;;;;;8.73;50.08;97506.13;4955977;28;20043;-62
2022/05/05 04:15:22;;;;;;;0.25;0.25;;;;;;;9.03;49.59;97501.25;4955986;28;20031;-65
2022/05/05 04:17:48;;;;;;;0.43;0.30;;;;;;;9.32;49.29;97510.06;4956625;28;20065;-62
2022/05/05 04:20:14;;;;;;;1.65;0.63;;;;;;;9.46;48.96;97522.22;4956150;28;20035;-62
2022/05/05 04:22:41;;;;;;;0.20;0.20;;;;;;;9.56;48.99;97515.22;4955716;28;20050;-62
2022/05/05 04:25:07;;;;;;;0.20;0.20;;;;;;;9.58;49.07;97526.72;4956000;28;20118;-63
2022/05/05 04:27:38;;;;;;;0.30;0.30;;;;;;;9.47;49.37;97509.38;4968242;28;20035;-64
2022/05/05 04:30:06;;;;;;;0.20;0.20;;;;;;;9.41;49.50;97513.97;4961128;28;20038;-66
2022/05/05 04:32:31;;;;;;;0.20;0.20;;;;;;;9.47;49.50;97523.91;4955898;28;20050;-64
2022/05/05 04:34:58;;;;;;;0.30;0.30;;;;;;;9.56;49.37;97523.44;4954943;28;20133;-62
2022/05/05 04:37:24;;;;;;;0.20;0.20;;;;;;;9.64;49.24;97533.91;4955713;28;20039;-63
2022/05/05 04:39:50;;;;;;;10.20;2.15;;;;;;;9.62;49.32;97533.34;4955507;28;20402;-65
2022/05/05 04:42:15;;;;;;;0.20;0.20;;;;;;;9.61;49.50;97535.28;4955389;28;20121;-63
2022/05/05 04:44:41;;;;;;;0.40;0.38;;;;;;;9.64;49.51;97534.75;4955541;28;20063;-61
2022/05/05 04:47:07;;;;;;;0.57;0.40;;;;;;;9.66;49.35;97529.00;4955476;28;20450;-64
2022/05/05 04:49:33;;;;;;;0.35;0.35;;;;;;;9.66;49.46;97531.75;4954580;28;20054;-60
2022/05/05 04:51:59;;;;;;;4.13;0.75;;;;;;;9.70;49.34;97537.53;4970415;28;20074;-63
2022/05/05 04:54:24;;;;;;;1.23;1.15;;;;;;;9.74;49.38;97533.19;4955248;28;20067;-62
2022/05/05 04:56:50;;;;;;;4.00;0.88;;;;;;;9.79;49.28;97531.31;4955125;28;20405;-61
2022/05/05 04:59:16;;;;;;;0.20;0.20;;;;;;;9.82;49.19;97540.94;4955272;28;20043;-63
2022/05/05 05:01:41;;;;;;;0.57;0.57;;;;;;;9.80;49.30;97538.47;4955210;28;20045;-63
2022/05/05 05:04:07;;;;;;;1.40;0.68;;;;;;;9.72;49.42;97529.88;4955281;28;20175;-61
2022/05/05 05:06:34;;;;;;;0.60;0.60;;;;;;;9.78;49.47;97535.13;4954968;28;20402;-63
2022/05/05 05:09:00;;;;;;;0.85;0.63;;;;;;;9.92;49.25;97529.22;4954906;28;20510;-62
2022/05/05 05:11:26;;;;;;;3.33;0.90;;;;;;;10.06;48.98;97533.16;4955232;28;20035;-62
2022/05/05 05:13:52;;;;;;;3.60;1.02;;;;;;;10.14;48.70;97521.72;4955281;28;20536;-62
2022/05/05 05:16:18;;;;;;;0.50;0.50;;;;;;;10.18;48.72;97527.50;4954953;29;20504;-65
2022/05/05 05:18:43;;;;;;;0.80;0.60;;;;;;;10.06;49.01;97524.94;4954339;28;20035;-62
2022/05/05 05:21:09;;;;;;;0.40;0.40;;;;;;;9.90;49.29;97521.25;4954787;28;20106;-62
2022/05/05 05:23:35;;;;;;;0.60;0.40;;;;;;;9.87;49.38;97527.25;4954683;28;20042;-63
2022/05/05 05:26:01;;;;;;;0.63;0.60;;;;;;;10.04;48.89;97520.81;4954383;28;20055;-62
2022/05/05 05:28:27;;;;;;;3.40;0.47;;;;;;;10.24;48.44;97523.69;4952358;28;20075;-64
2022/05/05 05:30:53;;;;;;;0.80;0.80;;;;;;;10.40;48.22;97524.63;4954360;28;20031;-64
2022/05/05 05:33:18;;;;;;;0.35;0.35;;;;;;;10.59;47.88;97532.44;4954095;28;20383;-62
2022/05/05 05:35:45;;;;;;;0.55;0.50;;;;;;;10.71;47.64;97535.78;4953454;28;20043;-62
2022/05/05 05:38:11;;;;;;;3.63;1.08;;;;;;;10.73;47.68;97525.34;4969301;28;20458;-62
2022/05/05 05:40:37;;;;;;;0.43;0.43;;;;;;;10.78;47.53;97532.81;4954318;28;20394;-62
2022/05/05 05:43:03;;;;;;;1.40;1.30;;;;;;;10.80;47.50;97525.13;4954636;28;20039;-62
2022/05/05 05:45:29;;;;;;;1.27;0.80;;;;;;;10.94;47.19;97533.69;4954885;29;20027;-62
2022/05/05 05:47:55;;;;;;;1.23;0.73;;;;;;;11.04;47.01;97526.31;4954279;28;20042;-63
2022/05/05 05:50:21;;;;;;;0.98;0.90;;;;;;;11.40;46.52;97528.34;4954030;28;20134;-65
2022/05/05 05:52:47;;;;;;;0.82;0.75;;;;;;;11.74;45.92;97523.16;4954611;28;20126;-61
2022/05/05 05:55:15;;;;;;;1.25;0.70;;;;;;;11.99;45.45;97534.47;4954180;28;20377;-64
2022/05/05 05:57:41;;;;;;;1.30;1.20;;;;;;;12.10;45.19;97525.09;4954087;28;20043;-63
2022/05/05 06:00:08;;;;;;;1.85;0.90;;;;;;;12.13;45.37;97530.06;4954098;28;20053;-62
2022/05/05 06:05:18;;;;;;;0.80;0.80;;;;;;;12.18;45.48;97532.81;4954134;29;20406;-63
2022/05/05 06:07:44;;;;;;;1.58;0.80;;;;;;;12.12;45.57;97536.66;4954153;28;20035;-61
2022/05/05 06:10:10;;;;;;;2.22;1.17;;;;;;;12.03;45.96;97543.84;4954000;28;20190;-62
2022/05/05 06:12:35;;;;;;;0.63;0.63;;;;;;;11.83;46.08;97545.44;4953910;28;20043;-63
2022/05/05 06:15:01;;;;;;;2.92;1.08;;;;;;;11.57;46.71;97553.66;4953878;28;20042;-62
2022/05/05 06:17:28;;;;;;;1.15;0.90;;;;;;;11.46;46.82;97537.41;4953570;28;20568;-61
2022/05/05 06:19:54;;;;;;;1.50;0.57;;;;;;;11.41;46.70;97546.50;4954015;28;20078;-62
2022/05/05 06:22:20;;;;;;;1.80;1.15;;;;;;;11.45;46.62;97539.31;4953697;28;20105;-62
2022/05/05 06:24:46;;;;;;;0.80;0.80;;;;;;;11.55;46.35;97533.03;4953731;28;20517;-62
2022/05/05 06:27:11;;;;;;;0.40;0.40;;;;;;;11.77;45.83;97535.53;4954173;28;20414;-61
2022/05/05 06:29:37;;;;;;;2.70;1.58;;;;;;;12.00;45.22;97522.34;4968461;28;20130;-62
2022/05/05 06:32:03;;;;;;;1.80;1.63;;;;;;;12.25;44.84;97524.28;4953616;28;20035;-62
2022/05/05 06:34:29;;;;;;;3.25;1.23;;;;;;;12.52;44.58;97515.69;4953778;29;20043;-61
2022/05/05 06:36:54;;;;;;;1.95;1.80;;;;;;;12.59;44.32;97518.16;4953633;28;20446;-61
2022/05/05 06:39:20;;;;;;;2.13;1.33;;;;;;;12.39;44.93;97514.31;4953778;28;20067;-62
2022/05/05 06:41:46;;;;;;;2.80;0.95;;;;;;;12.16;45.47;97507.50;4953730;28;20102;-62
2022/05/05 06:44:11;;;;;;;1.48;1.13;;;;;;;11.93;45.72;97500.63;4953654;28;20050;-63
2022/05/05 06:46:38;;;;;;;1.08;1.05;;;;;;;11.90;45.82;97507.47;4956591;28;20035;-62
2022/05/05 06:49:05;;;;;;;1.35;1.05;;;;;;;11.76;46.18;97506.38;4956974;28;20035;-63
2022/05/05 06:51:30;;;;;;;1.88;1.10;;;;;;;11.58;46.51;97499.50;4957037;29;20059;-61
2022/05/05 06:53:56;;;;;;;8.93;2.15;;;;;;;11.43;46.87;97499.50;4957456;28;20055;-62
2022/05/05 06:56:24;;;;;;;0.68;0.68;;;;;;;11.36;46.78;97499.75;4957135;28;20195;-62
2022/05/05 06:58:49;;;;;;;1.35;1.25;;;;;;;11.31;46.86;97502.50;4957240;28;20035;-63
2022/05/05 07:06:43;;;;;;;1.30;1.20;;;;;;;11.03;47.19;97499.13;4957326;29;20082;-62
2022/05/05 07:11:54;;;;;;;2.47;1.35;;;;;;;10.59;48.06;97491.28;4957088;29;20413;-62
2022/05/05 07:14:19;;;;;;;1.27;0.93;;;;;;;10.47;48.06;97497.78;4957086;28;20410;-62
2022/05/05 07:16:45;;;;;;;0.32;0.32;;;;;;;10.43;48.28;97496.66;4956994;28;20036;-62
2022/05/05 07:19:11;;;;;;;0.32;0.32;;;;;;;10.48;48.12;97493.13;4956467;28;20449;-61
2022/05/05 07:21:37;;;;;;;0.47;0.47;;;;;;;10.50;48.08;97493.69;4956849;28;20126;-62
2022/05/05 07:24:04;;;;;;;1.05;0.98;;;;;;;10.30;48.35;97486.13;4956552;28;20050;-63
2022/05/05 07:26:30;;;;;;;2.80;0.77;;;;;;;10.03;48.79;97489.81;4956555;28;20059;-62
2022/05/05 07:28:55;;;;;;;0.88;0.73;;;;;;;9.96;48.96;97483.72;4956569;28;20066;-61
2022/05/05 07:31:21;;;;;;;2.95;0.88;;;;;;;9.94;49.11;97489.47;4956726;28;20038;-63
2022/05/05 07:33:47;;;;;;;0.77;0.77;;;;;;;9.83;49.27;97493.22;4956420;28;20039;-61
2022/05/05 07:36:12;;;;;;;2.38;0.75;;;;;;;9.73;49.37;97488.50;4956610;28;20051;-62
2022/05/05 07:38:38;;;;;;;0.73;0.73;;;;;;;9.76;49.37;97485.25;4956453;28;20078;-62
2022/05/05 07:41:04;;;;;;;0.70;0.70;;;;;;;9.88;49.15;97479.56;4956578;28;20031;-61
2022/05/05 07:43:30;;;;;;;3.47;0.60;;;;;;;9.98;49.05;97487.03;4956289;28;20126;-62
2022/05/05 07:45:56;;;;;;;2.80;0.45;;;;;;;10.02;48.82;97493.63;4956489;28;20156;-63
2022/05/05 07:48:22;;;;;;;1.27;0.70;;;;;;;9.95;49.11;97484.81;4955752;28;20393;-61
2022/05/05 07:50:47;;;;;;;0.60;0.60;;;;;;;9.89;49.29;97481.19;4956315;28;20138;-61
2022/05/05 07:53:16;;;;;;;1.63;0.90;;;;;;;9.82;49.44;97469.66;4956012;28;20043;-62
2022/05/05 07:55:42;;;;;;;0.55;0.55;;;;;;;9.66;49.73;97465.97;4956121;28;20036;-60
2022/05/05 07:58:08;;;;;;;2.90;0.77;;;;;;;9.46;50.08;97467.44;4955562;28;20039;-62
2022/05/05 08:00:34;;;;;;;2.55;0.93;;;;;;;9.35;50.27;97464.88;4955608;28;20482;-61
2022/05/05 08:02:59;;;;;;;0.75;0.75;;;;;;;9.35;50.41;97460.25;4951493;28;20070;-63
2022/05/05 08:05:25;;;;;;;1.17;0.63;;;;;;;9.43;50.20;97459.75;4949149;29;20035;-62
2022/05/05 08:07:51;;;;;;;0.47;0.47;;;;;;;9.42;50.25;97463.59;4968857;28;20841;-64
2022/05/05 08:10:20;;;;;;;2.72;0.90;;;;;;;9.16;50.94;97458.94;4955615;28;20049;-62
2022/05/05 08:12:47;;;;;;;2.45;0.50;;;;;;;9.17;51.04;97449.66;4952096;28;20126;-62
2022/05/05 08:15:16;;;;;;;0.52;0.52;;;;;;;9.32;50.79;97455.28;4953209;29;20043;-62
2022/05/05 08:17:43;;;;;;;0.63;0.63;;;;;;;9.41;50.75;97448.22;4952493;29;20118;-63
2022/05/05 08:20:09;;;;;;;2.05;0.90;;;;;;;9.41;50.67;97452.91;4951244;28;20031;-62
2022/05/05 08:22:36;;;;;;;0.68;0.57;;;;;;;9.22;51.09;97455.19;4952640;28;20039;-63
2022/05/05 08:30:30;;;;;;;0.32;0.30;;;;;;;9.18;51.21;97454.84;4953426;29;20081;-64
2022/05/05 08:32:57;;;;;;;0.38;0.38;;;;;;;9.11;51.43;97460.56;4954652;29;20063;-62
2022/05/05 08:35:22;;;;;;;1.75;0.98;;;;;;;9.03;51.51;97469.22;4954273;29;20031;-62
2022/05/05 08:37:52;;;;;;;0.30;0.30;;;;;;;8.88;51.78;97464.41;4953973;29;20039;-62
2022/05/05 08:40:18;;;;;;;0.93;0.32;;;;;;;8.68;52.26;97467.75;4953210;28;20046;-62
2022/05/05 08:42:45;;;;;;;1.10;0.77;;;;;;;8.46;52.72;97464.19;4953592;28;20497;-62
2022/05/05 08:45:10;;;;;;;0.63;0.43;;;;;;;8.27;53.24;97478.13;4953372;28;20082;-62
2022/05/05 08:47:37;;;;;;;0.28;0.20;;;;;;;7.86;54.11;97472.94;4953537;28;20433;-62
2022/05/05 08:50:03;;;;;;;0.52;0.50;;;;;;;7.63;54.78;97462.19;4954009;28;20087;-62
2022/05/05 08:52:34;;;;;;;0.40;0.40;;;;;;;7.54;55.01;97459.03;4939809;28;20063;-62
2022/05/05 08:55:01;;;;;;;0.63;0.63;;;;;;;7.45;55.16;97487.81;4942283;28;20446;-62
2022/05/05 08:57:27;;;;;;;0.35;0.35;;;;;;;7.34;55.52;97495.84;4933393;29;20035;-62
2022/05/05 08:59:55;;;;;;;0.20;0.20;;;;;;;7.37;55.18;97480.88;4933681;29;20031;-62
2022/05/05 09:02:21;;;;;;;0.80;0.80;;;;;;;7.39;55.10;97497.84;4933476;29;20043;-63
2022/05/05 09:04:47;;;;;;;0.32;0.32;;;;;;;7.25;55.68;97494.59;4934054;29;20537;-63
2022/05/05 09:07:13;;;;;;;0.10;0.10;;;;;;;7.18;55.73;97497.50;4935405;29;20031;-62
2022/05/05 09:09:39;;;;;;;0.32;0.32;;;;;;;6.98;56.11;97488.91;4949027;28;20047;-63
2022/05/05 09:12:13;;;;;;;0.30;0.30;;;;;;;6.83;56.61;97486.69;4948109;28;20090;-60
2022/05/05 09:14:48;;;;;;;0.30;0.30;;;;;;;6.77;56.78;97482.22;4949838;29;20629;-63
2022/05/05 09:17:21;;;;;;;0.40;0.40;;;;;;;6.69;56.83;97472.53;4950328;29;20401;-61
2022/05/05 09:19:52;;;;;;;0.38;0.38;;;;;;;6.76;56.67;97475.94;4947371;29;20050;-64
2022/05/05 09:22:20;;;;;;;1.23;0.68;;;;;;;6.89;56.55;97469.38;4946053;29;20067;-67
2022/05/05 09:24:49;;;;;;;0.50;0.38;;;;;;;6.95;56.44;97473.00;4948205;28;20039;-61
2022/05/05 09:27:25;;;;;;;0.40;0.40;;;;;;;6.91;56.79;97471.88;4950101;28;20159;-62
2022/05/05 09:30:12;;;;;;;1.67;0.65;;;;;;;6.93;56.66;97473.25;4947299;29;20045;-61
2022/05/05 09:32:45;;;;;;;0.30;0.30;;;;;;;6.99;56.58;97472.31;4949224;29;20035;-63
2022/05/05 09:35:14;;;;;;;0.68;0.68;;;;;;;6.95;56.78;97471.13;4948012;29;20633;-61
2022/05/05 09:37:47;;;;;;;0.47;0.47;;;;;;;6.93;56.80;97466.97;4945528;29;20026;-62
2022/05/05 09:40:18;;;;;;;0.30;0.30;;;;;;;6.99;56.70;97464.13;4949595;29;20642;-63
2022/05/05 09:42:55;;;;;;;2.35;0.77;;;;;;;7.14;56.68;97459.97;4951836;29;20098;-61
2022/05/05 09:45:22;;;;;;;0.55;0.55;;;;;;;7.27;56.30;97465.13;4951682;29;20549;-60
2022/05/05 09:47:53;;;;;;;0.30;0.30;;;;;;;7.33;56.38;97466.91;4951163;28;20376;-62
2022/05/05 09:50:22;;;;;;;0.30;0.30;;;;;;;7.36;56.30;97463.66;4951837;29;20066;-61
2022/05/05 09:58:22;;;;;;;0.68;0.40;;;;;;;7.10;57.56;97480.69;4953493;29;20033;-66
2022/05/05 10:01:00;;;;;;;1.17;0.40;;;;;;;6.80;58.27;97493.50;4952638;28;20122;-64
2022/05/05 10:06:29;;;;;;;0.40;0.40;;;;;;;6.58;58.80;97471.50;4953183;29;20552;-63
2022/05/05 10:08:59;;;;;;;0.55;0.55;;;;;;;6.51;59.06;97462.66;4954962;28;20043;-64
2022/05/05 10:11:25;;;;;;;0.30;0.30;;;;;;;6.42;59.33;97464.06;4972255;28;20041;-59
2022/05/05 10:13:51;;;;;;;0.30;0.30;;;;;;;6.36;59.37;97465.88;4972194;28;20039;-62
2022/05/05 10:16:20;;;;;;;0.50;0.50;;;;;;;6.15;59.73;97456.44;4970817;28;20046;-60
2022/05/05 10:18:46;;;;;;;2.20;0.50;;;;;;;5.99;60.18;97440.81;4937926;28;20047;-60
2022/05/05 10:21:25;;;;;;;0.40;0.40;;;;;;;5.97;60.20;97424.72;4962938;28;20039;-61
2022/05/05 10:24:17;;;;;;;0.98;0.80;;;;;;;5.99;60.07;97430.75;4975290;28;20093;-63
2022/05/05 10:26:49;;;;;;;0.30;0.30;;;;;;;5.88;60.25;97434.28;4949386;29;20050;-61
2022/05/05 10:29:33;;;;;;;0.15;0.15;;;;;;;5.85;60.24;97424.69;4955435;29;20126;-62
2022/05/05 10:32:15;;;;;;;0.20;0.20;;;;;;;5.77;60.21;97406.81;4955858;28;20039;-63
2022/05/05 10:34:45;;;;;;;1.65;0.75;;;;;;;5.74;60.26;97410.03;4955822;28;20118;-62
2022/05/05 10:37:17;;;;;;;0.20;0.20;;;;;;;5.67;60.39;97414.78;4955443;28;20557;-63
2022/05/05 10:40:01;;;;;;;0.20;0.20;;;;;;;5.57;60.75;97415.34;4955759;28;20035;-61
2022/05/05 10:42:30;;;;;;;0.20;0.20;;;;;;;5.51;60.80;97424.47;4956424;28;20073;-63
2022/05/05 10:45:12;;;;;;;0.20;0.20;;;;;;;5.52;60.87;97425.28;4956317;28;20035;-62
2022/05/05 10:47:50;;;;;;;0.13;0.13;;;;;;;5.53;60.76;97430.50;4955966;28;20042;-62
2022/05/05 10:50:29;;;;;;;0.20;0.20;;;;;;;5.59;60.49;97436.91;4956436;28;20047;-61
2022/05/05 10:52:57;;;;;;;0.50;0.50;;;;;;;5.72;60.42;97438.56;4956174;28;20082;-62
2022/05/05 10:55:31;;;;;;;0.20;0.20;;;;;;;5.72;60.40;97425.75;4956346;28;20043;-62
2022/05/05 10:57:57;;;;;;;0.20;0.20;;;;;;;5.82;60.15;97427.91;4956345;28;20083;-63
2022/05/05 11:00:23;;;;;;;0.30;0.30;;;;;;;5.96;59.98;97393.91;4970902;28;20039;-64
2022/05/05 11:02:58;;;;;;;0.17;0.17;;;;;;;6.25;59.43;97383.06;4956069;28;20475;-62
2022/05/05 11:05:27;;;;;;;0.20;0.20;;;;;;;6.45;59.15;97398.16;4949456;28;20590;-64
2022/05/05 11:07:54;;;;;;;0.20;0.20;;;;;;;6.61;58.86;97399.28;4937306;29;20031;-64
2022/05/05 11:10:38;;;;;;;0.30;0.30;;;;;;;6.49;59.37;97383.81;4937098;29;20114;-63
2022/05/05 11:13:04;;;;;;;0.20;0.20;;;;;;;6.43;59.64;97392.13;4937056;29;20067;-62
2022/05/05 11:21:35;;;;;;;0.30;0.30;;;;;;;5.96;61.08;97434.75;4937366;29;20049;-64
2022/05/05 11:24:02;;;;;;;0.38;0.38;;;;;;;6.13;60.75;97417.69;4937672;29;20094;-64
2022/05/05 11:26:28;;;;;;;0.20;0.20;;;;;;;6.30;60.33;97388.63;4937744;29;20379;-63
2022/05/05 11:28:55;;;;;;;0.40;0.40;;;;;;;6.11;60.94;97393.41;4937912;29;20561;-65
2022/05/05 11:31:29;;;;;;;0.20;0.20;;;;;;;5.93;61.65;97418.91;4937473;29;20040;-65
2022/05/05 11:34:00;;;;;;;0.40;0.40;;;;;;;5.95;61.44;97405.03;4942400;29;20028;-62
2022/05/05 11:36:33;;;;;;;0.60;0.60;;;;;;;6.11;60.94;97403.47;4938521;28;20625;-63
2022/05/05 11:38:59;;;;;;;0.25;0.25;;;;;;;6.43;60.20;97384.78;4937279;29;20035;-63
2022/05/05 11:41:25;;;;;;;0.30;0.30;;;;;;;6.72;59.63;97376.56;4937578;29;20451;-64
2022/05/05 11:46:38;;;;;;;0.20;0.20;;;;;;;6.86;59.58;97376.25;4937479;29;20055;-63
2022/05/05 11:49:05;;;;;;;0.55;0.35;;;;;;;6.90;59.54;97375.50;4936649;29;20078;-63
2022/05/05 11:51:33;;;;;;;0.43;0.43;;;;;;;6.89;59.95;97368.44;4937727;29;20082;-62
2022/05/05 11:54:11;;;;;;;0.20;0.20;;;;;;;6.92;59.75;97365.19;4937240;29;20056;-63
2022/05/05 11:56:44;;;;;;;0.17;0.17;;;;;;;6.84;60.26;97369.13;4936604;29;20039;-65
2022/05/05 12:01:58;;;;;;;;;;;;;;;6.95;60.25;97364.72;4936760;29;20051;-64
2022/05/05 12:04:24;;;;;;;0.20;0.20;;;;;;;7.12;59.89;97361.97;4939705;29;20382;-63
2022/05/05 12:06:50;;;;;;;0.20;0.20;;;;;;;7.26;59.64;97354.28;4942907;28;20039;-63
2022/05/05 12:09:16;;;;;;;0.20;0.20;;;;;;;7.16;59.97;97365.84;4935754;29;20095;-64
2022/05/05 12:11:43;;;;;;;0.20;0.20;;;;;;;6.93;60.62;97361.38;4935400;29;20032;-62
2022/05/05 12:14:10;;;;;;;0.20;0.20;;;;;;;6.66;61.47;97364.75;4935787;29;20078;-63
2022/05/05 12:16:37;;;;;;;0.60;0.60;;;;;;;6.49;61.84;97392.00;4936024;29;20032;-62
2022/05/05 12:19:13;;;;;;;0.20;0.20;;;;;;;6.32;62.32;97389.19;4935276;29;20478;-64
2022/05/05 12:21:56;;;;;;;0.20;0.20;;;;;;;6.24;62.54;97370.50;4935581;29;20036;-62
2022/05/05 12:24:23;;;;;;;0.20;0.20;;;;;;;6.23;62.65;97379.75;4935457;29;20126;-61
2022/05/05 12:26:51;;;;;;;0.20;0.20;;;;;;;6.16;62.77;97362.72;4935175;29;20126;-63
2022/05/05 12:29:19;;;;;;;0.20;0.20;;;;;;;6.20;62.60;97357.59;4935487;29;20035;-61
2022/05/05 12:31:55;;;;;;;0.20;0.20;;;;;;;6.23;62.60;97336.13;4933276;29;20054;-62
2022/05/05 12:34:27;;;;;;;0.40;0.40;;;;;;;6.23;62.51;97347.03;4935312;29;20039;-61
2022/05/05 12:37:11;;;;;;;0.20;0.20;;;;;;;6.20;62.66;97358.44;4935262;29;20059;-62
2022/05/05 12:39:54;;;;;;;0.30;0.30;;;;;;;6.11;62.85;97347.09;4935405;29;20036;-62
2022/05/05 12:42:21;;;;;;;0.20;0.20;;;;;;;6.06;62.98;97338.78;4935353;29;20446;-62
2022/05/05 12:44:49;;;;;;;0.32;0.32;;;;;;;6.03;62.95;97335.75;4936306;29;20043;-63
2022/05/05 12:47:22;;;;;;;0.38;0.38;;;;;;;6.03;62.97;97324.84;4934673;29;20028;-64
2022/05/05 12:49:48;;;;;;;0.20;0.20;;;;;;;6.03;62.99;97335.75;4934996;29;20098;-64